createdAt,value
2023-01-17T00:02:11.737Z,6.52
2023-01-17T00:04:57.117Z,6.63
2023-01-17T00:07:44.480Z,6.51
2023-01-17T00:10:13.539Z,6.62
2023-01-17T00:12:45.658Z,6.56
2023-01-17T00:15:12.533Z,6.46
2023-01-17T00:17:39.578Z,6.50
2023-01-17T00:20:26.255Z,6.59
2023-01-17T00:23:13.398Z,6.54
2023-01-17T00:25:59.306Z,6.39
2023-01-17T00:28:27.095Z,6.32
2023-01-17T00:30:54.214Z,6.28
2023-01-17T00:33:22.514Z,6.22
2023-01-17T00:35:49.900Z,6.18
2023-01-17T00:38:20.103Z,6.17
2023-01-17T00:40:47.670Z,6.08
2023-01-17T00:43:35.822Z,6.00
2023-01-17T00:46:21.844Z,5.97
2023-01-17T00:49:07.418Z,5.96
2023-01-17T00:51:53.629Z,5.95
2023-01-17T00:54:41.289Z,5.89
2023-01-17T00:57:27.191Z,5.85
2023-01-17T01:00:12.341Z,5.77
2023-01-17T01:02:58.165Z,5.82
2023-01-17T01:05:43.783Z,5.87
2023-01-17T01:08:39.422Z,5.89
2023-01-17T01:11:28.267Z,5.96
2023-01-17T01:14:14.447Z,6.00
2023-01-17T01:17:00.422Z,6.07
2023-01-17T01:19:45.606Z,5.83
2023-01-17T01:22:31.285Z,5.90
2023-01-17T01:25:16.950Z,5.94
2023-01-17T01:28:03.785Z,5.96
2023-01-17T01:30:49.474Z,5.85
2023-01-17T01:33:19.295Z,5.86
2023-01-17T01:35:48.212Z,5.87
2023-01-17T01:38:15.182Z,5.92
2023-01-17T01:40:44.031Z,5.86
2023-01-17T01:43:14.856Z,5.86
2023-01-17T01:45:47.267Z,5.76
2023-01-17T01:48:34.697Z,5.83
2023-01-17T01:51:04.645Z,5.80
2023-01-17T01:53:35.607Z,5.80
2023-01-17T01:56:04.302Z,5.82
2023-01-17T01:58:36.967Z,5.71
2023-01-17T02:01:05.400Z,5.73
2023-01-17T02:03:33.626Z,5.69
2023-01-17T02:06:07.591Z,5.89
2023-01-17T02:08:35.446Z,6.11
2023-01-17T02:11:03.113Z,6.19
2023-01-17T02:13:32.093Z,6.22
2023-01-17T02:16:05.785Z,6.11
2023-01-17T02:18:49.184Z,6.14
2023-01-17T02:21:23.263Z,6.11
2023-01-17T02:24:24.580Z,6.02
2023-01-17T02:26:57.959Z,5.95
2023-01-17T02:30:01.789Z,5.89
2023-01-17T02:32:43.252Z,5.85
2023-01-17T02:35:17.870Z,5.78
2023-01-17T02:37:54.604Z,5.73
2023-01-17T02:40:26.541Z,5.71
2023-01-17T02:42:57.087Z,5.80
2023-01-17T02:45:23.975Z,5.88
2023-01-17T02:47:52.272Z,6.07
2023-01-17T02:50:23.008Z,6.11
2023-01-17T02:53:03.632Z,6.19
2023-01-17T02:55:46.707Z,6.02
2023-01-17T02:58:38.681Z,5.83
2023-01-17T03:01:16.199Z,5.72
2023-01-17T03:03:51.842Z,5.72
2023-01-17T03:06:23.671Z,5.60
2023-01-17T03:08:52.087Z,5.63
2023-01-17T03:11:19.417Z,5.51
2023-01-17T03:13:46.362Z,5.50
2023-01-17T03:16:18.651Z,5.55
2023-01-17T03:18:47.295Z,5.44
2023-01-17T03:21:14.316Z,5.33
2023-01-17T03:23:41.220Z,5.36
2023-01-17T03:26:08.288Z,5.29
2023-01-17T03:28:35.250Z,5.40
2023-01-17T03:31:02.244Z,5.35
2023-01-17T03:33:29.263Z,5.31
2023-01-17T03:36:00.894Z,5.33
2023-01-17T03:38:29.249Z,5.42
2023-01-17T03:40:56.328Z,5.28
2023-01-17T03:43:23.349Z,5.28
2023-01-17T03:45:50.388Z,5.33
2023-01-17T03:48:17.365Z,5.37
2023-01-17T03:50:44.296Z,5.33
2023-01-17T03:53:12.661Z,5.37
2023-01-17T03:55:39.580Z,5.31
2023-01-17T03:58:08.076Z,5.36
2023-01-17T04:00:34.988Z,5.31
2023-01-17T04:03:01.831Z,5.27
2023-01-17T04:05:28.781Z,5.25
2023-01-17T04:07:55.668Z,5.32
2023-01-17T04:10:24.033Z,5.33
2023-01-17T04:12:50.919Z,5.28
2023-01-17T04:15:17.978Z,5.33
2023-01-17T04:17:44.905Z,5.32
2023-01-17T04:20:16.337Z,5.32
2023-01-17T04:22:44.516Z,5.34
2023-01-17T04:25:11.762Z,5.27
2023-01-17T04:27:40.285Z,5.28
2023-01-17T04:30:08.164Z,5.24
2023-01-17T04:32:34.990Z,5.30
2023-01-17T04:35:01.942Z,5.21
2023-01-17T04:37:28.775Z,5.22
2023-01-17T04:39:55.594Z,5.27
2023-01-17T04:42:22.542Z,5.18
2023-01-17T04:44:50.813Z,5.19
2023-01-17T04:47:17.747Z,5.22
2023-01-17T04:49:44.608Z,5.25
2023-01-17T04:52:11.880Z,5.33
2023-01-17T04:54:38.715Z,5.29
2023-01-17T04:57:05.666Z,5.39
2023-01-17T04:59:32.643Z,5.38
2023-01-17T05:02:01.008Z,5.48
2023-01-17T05:04:30.899Z,5.47
2023-01-17T05:06:57.901Z,5.51
2023-01-17T05:09:24.916Z,5.54
2023-01-17T05:11:51.825Z,5.52
2023-01-17T05:14:18.750Z,5.57
2023-01-17T05:16:45.599Z,5.45
2023-01-17T05:19:14.084Z,5.52
2023-01-17T05:21:40.922Z,5.50
2023-01-17T05:24:07.955Z,5.45
2023-01-17T05:26:34.878Z,5.41
2023-01-17T05:29:01.726Z,5.28
2023-01-17T05:31:28.536Z,5.28
2023-01-17T05:33:55.613Z,5.20
2023-01-17T05:36:23.833Z,5.27
2023-01-17T05:38:50.748Z,5.23
2023-01-17T05:41:17.648Z,5.07
2023-01-17T05:43:44.488Z,5.10
2023-01-17T05:46:11.567Z,4.98
2023-01-17T05:48:38.472Z,4.98
2023-01-17T05:51:05.556Z,4.92
2023-01-17T05:53:33.977Z,4.90
2023-01-17T05:56:00.859Z,4.90
2023-01-17T05:58:27.779Z,4.86
2023-01-17T06:00:55.552Z,4.93
2023-01-17T06:03:22.408Z,4.86
2023-01-17T06:05:50.218Z,4.63
2023-01-17T06:08:17.173Z,4.59
2023-01-17T06:10:45.448Z,4.59
2023-01-17T06:13:15.354Z,4.72
2023-01-17T06:15:42.741Z,4.65
2023-01-17T06:18:11.850Z,4.60
2023-01-17T06:20:39.702Z,4.59
2023-01-17T06:23:08.759Z,4.48
2023-01-17T06:25:37.450Z,4.38
2023-01-17T06:28:06.234Z,4.39
2023-01-17T06:30:33.265Z,4.41
2023-01-17T06:33:00.413Z,4.54
2023-01-17T06:35:32.694Z,4.42
2023-01-17T06:38:00.574Z,4.47
2023-01-17T06:40:28.539Z,4.58
2023-01-17T06:42:59.777Z,4.56
2023-01-17T06:45:29.948Z,4.52
2023-01-17T06:47:59.241Z,4.54
2023-01-17T06:50:26.861Z,4.32
2023-01-17T06:52:59.549Z,4.30
2023-01-17T06:55:30.179Z,4.57
2023-01-17T06:57:59.551Z,4.46
2023-01-17T07:00:29.568Z,4.41
2023-01-17T07:02:56.656Z,4.33
2023-01-17T07:05:23.624Z,4.33
2023-01-17T07:07:50.511Z,4.24
2023-01-17T07:10:17.435Z,4.25
2023-01-17T07:12:44.350Z,4.21
2023-01-17T07:15:12.150Z,4.24
2023-01-17T07:17:40.481Z,4.20
2023-01-17T07:20:08.564Z,4.34
2023-01-17T07:22:37.885Z,4.31
2023-01-17T07:25:05.777Z,4.26
2023-01-17T07:27:33.663Z,4.24
2023-01-17T07:30:00.951Z,4.24
2023-01-17T07:32:28.172Z,4.15
2023-01-17T07:34:59.192Z,4.15
2023-01-17T07:37:28.594Z,4.19
2023-01-17T07:39:55.603Z,4.30
2023-01-17T07:42:24.162Z,4.29
2023-01-17T07:44:51.325Z,4.28
2023-01-17T07:47:18.151Z,4.50
2023-01-17T07:49:45.191Z,4.39
2023-01-17T07:52:13.501Z,4.46
2023-01-17T07:54:40.432Z,4.54
2023-01-17T07:57:11.580Z,4.59
2023-01-17T07:59:38.380Z,4.58
2023-01-17T08:02:05.371Z,4.59
2023-01-17T08:04:35.305Z,4.61
2023-01-17T08:07:02.478Z,4.64
2023-01-17T08:09:30.981Z,4.63
2023-01-17T08:11:57.838Z,4.64
2023-01-17T08:14:25.070Z,4.59
2023-01-17T08:16:52.137Z,4.64
2023-01-17T08:19:19.173Z,4.52
2023-01-17T08:21:46.103Z,4.48
2023-01-17T08:24:13.849Z,4.47
2023-01-17T08:26:42.142Z,4.62
2023-01-17T08:29:09.464Z,4.70
2023-01-17T08:31:36.827Z,4.81
2023-01-17T08:34:04.423Z,4.76
2023-01-17T08:36:31.555Z,4.82
2023-01-17T08:38:59.008Z,4.88
2023-01-17T08:41:27.900Z,4.84
2023-01-17T08:43:56.790Z,4.83
2023-01-17T08:46:24.468Z,4.92
2023-01-17T08:48:53.999Z,4.80
2023-01-17T08:51:20.928Z,4.84
2023-01-17T08:53:48.641Z,4.86
2023-01-17T08:56:15.555Z,4.90
2023-01-17T08:58:42.663Z,4.97
2023-01-17T09:01:11.103Z,5.03
2023-01-17T09:03:40.776Z,5.00
2023-01-17T09:06:10.415Z,4.95
2023-01-17T09:08:37.742Z,5.08
2023-01-17T09:11:05.198Z,5.15
2023-01-17T09:13:32.001Z,5.11
2023-01-17T09:15:59.717Z,5.22
2023-01-17T09:18:29.440Z,5.30
2023-01-17T09:20:59.240Z,5.45
2023-01-17T09:23:28.146Z,5.56
2023-01-17T09:25:56.172Z,5.59
2023-01-17T09:28:23.838Z,5.68
2023-01-17T09:30:51.170Z,5.76
2023-01-17T09:33:18.144Z,5.84
2023-01-17T09:35:47.104Z,5.87
2023-01-17T09:38:14.189Z,5.95
2023-01-17T09:40:44.993Z,6.04
2023-01-17T09:43:23.406Z,6.03
2023-01-17T09:45:50.556Z,6.05
2023-01-17T09:48:25.430Z,6.07
2023-01-17T09:50:59.510Z,6.14
2023-01-17T09:53:27.613Z,6.16
2023-01-17T09:55:58.736Z,6.17
2023-01-17T09:58:35.491Z,6.31
2023-01-17T10:01:13.105Z,6.37
2023-01-17T10:03:53.893Z,6.49
2023-01-17T10:06:36.785Z,6.43
2023-01-17T10:09:24.365Z,6.49
2023-01-17T10:12:09.158Z,6.60
2023-01-17T10:14:55.110Z,6.67
2023-01-17T10:17:33.096Z,6.78
2023-01-17T10:20:12.405Z,6.76
2023-01-17T10:22:56.052Z,6.81
2023-01-17T10:25:34.690Z,6.98
2023-01-17T10:28:10.284Z,6.94
2023-01-17T10:30:42.619Z,7.08
2023-01-17T10:33:15.128Z,7.14
2023-01-17T10:35:53.418Z,7.12
2023-01-17T10:38:25.720Z,7.34
2023-01-17T10:40:57.469Z,7.40
2023-01-17T10:43:30.887Z,7.44
2023-01-17T10:45:58.031Z,7.35
2023-01-17T10:48:36.882Z,7.47
2023-01-17T10:51:13.853Z,7.55
2023-01-17T10:53:55.174Z,7.60
2023-01-17T10:56:27.239Z,7.60
2023-01-17T10:59:08.451Z,7.69
2023-01-17T11:01:35.492Z,7.68
2023-01-17T11:04:03.271Z,7.80
2023-01-17T11:06:33.219Z,7.80
2023-01-17T11:09:05.348Z,7.92
2023-01-17T11:11:34.339Z,7.91
2023-01-17T11:14:05.113Z,7.94
2023-01-17T11:16:32.600Z,7.95
2023-01-17T11:19:13.526Z,8.00
2023-01-17T11:21:50.196Z,8.00
2023-01-17T11:24:26.029Z,8.13
2023-01-17T11:26:52.906Z,8.13
2023-01-17T11:29:31.431Z,8.07
2023-01-17T11:32:17.979Z,8.11
2023-01-17T11:34:44.850Z,8.16
2023-01-17T11:37:19.405Z,8.16
2023-01-17T11:39:48.271Z,8.17
2023-01-17T11:42:36.810Z,8.19
2023-01-17T11:45:24.359Z,8.22
2023-01-17T11:48:12.402Z,8.24
2023-01-17T11:50:41.414Z,8.24
2023-01-17T11:53:17.973Z,8.33
2023-01-17T11:56:05.613Z,8.44
2023-01-17T11:58:34.943Z,8.37
2023-01-17T12:01:21.083Z,8.40
2023-01-17T12:04:03.210Z,8.66
2023-01-17T12:06:56.179Z,8.53
2023-01-17T12:09:32.330Z,8.49
2023-01-17T12:12:29.266Z,8.58
2023-01-17T12:15:08.625Z,8.76
2023-01-17T12:17:51.172Z,8.81
2023-01-17T12:20:24.866Z,8.79
2023-01-17T12:23:19.666Z,8.84
2023-01-17T12:26:00.776Z,8.85
2023-01-17T12:28:46.668Z,8.80
2023-01-17T12:31:27.124Z,8.82
2023-01-17T12:34:00.161Z,8.95
2023-01-17T12:36:37.806Z,8.95
2023-01-17T12:39:11.958Z,9.04
2023-01-17T12:41:52.802Z,9.18
2023-01-17T12:44:39.153Z,9.28
2023-01-17T12:47:07.352Z,9.43
2023-01-17T12:49:41.750Z,9.54
2023-01-17T12:52:15.208Z,9.65
2023-01-17T12:54:46.912Z,9.52
2023-01-17T12:57:18.556Z,9.50
2023-01-17T12:59:53.729Z,9.58
2023-01-17T13:02:31.332Z,9.47
2023-01-17T13:05:05.955Z,9.47
2023-01-17T13:07:42.241Z,9.32
2023-01-17T13:10:23.786Z,9.23
2023-01-17T13:12:51.813Z,9.51
2023-01-17T13:15:25.604Z,9.57
2023-01-17T13:18:00.853Z,9.60
2023-01-17T13:20:33.446Z,9.66
2023-01-17T13:23:08.650Z,9.47
2023-01-17T13:25:45.307Z,9.72
2023-01-17T13:28:22.591Z,9.82
2023-01-17T13:31:22.774Z,9.88
2023-01-17T13:34:15.193Z,9.95
2023-01-17T13:36:57.842Z,10.01
2023-01-17T13:39:48.366Z,10.01
2023-01-17T13:42:24.282Z,9.92
2023-01-17T13:44:51.611Z,10.01
2023-01-17T13:47:40.438Z,10.04
2023-01-17T13:50:40.358Z,10.03
2023-01-17T13:53:55.189Z,10.12
2023-01-17T13:56:42.955Z,10.23
2023-01-17T13:59:34.332Z,10.38
2023-01-17T14:02:01.347Z,10.32
2023-01-17T14:05:13.524Z,10.47
2023-01-17T14:07:46.559Z,10.32
2023-01-17T14:10:27.523Z,10.45
2023-01-17T14:12:54.907Z,10.16
2023-01-17T14:15:25.644Z,10.46
2023-01-17T14:17:56.012Z,10.26
2023-01-17T14:20:46.884Z,10.08
2023-01-17T14:23:37.911Z,10.09
2023-01-17T14:26:28.292Z,10.05
2023-01-17T14:28:56.283Z,10.01
2023-01-17T14:31:24.406Z,9.90
2023-01-17T14:33:51.412Z,9.77
2023-01-17T14:36:29.543Z,9.42
2023-01-17T14:38:56.544Z,9.50
2023-01-17T14:41:25.926Z,9.56
2023-01-17T14:43:53.748Z,9.45
2023-01-17T14:46:24.932Z,9.26
2023-01-17T14:48:58.622Z,9.14
2023-01-17T14:51:27.037Z,9.13
2023-01-17T14:53:55.454Z,9.09
2023-01-17T14:56:23.595Z,8.91
2023-01-17T14:59:04.832Z,8.79
2023-01-17T15:01:33.300Z,8.69
2023-01-17T15:04:00.415Z,8.62
2023-01-17T15:06:36.202Z,8.61
2023-01-17T15:09:09.568Z,8.58
2023-01-17T15:11:37.325Z,8.57
2023-01-17T15:14:06.295Z,8.50
2023-01-17T15:16:34.873Z,8.38
2023-01-17T15:19:02.587Z,8.44
2023-01-17T15:21:35.506Z,8.16
2023-01-17T15:24:07.101Z,8.02
2023-01-17T15:26:36.745Z,7.90
2023-01-17T15:29:06.527Z,7.79
2023-01-17T15:31:43.018Z,7.63
2023-01-17T15:34:19.345Z,7.54
2023-01-17T15:36:50.000Z,7.43
2023-01-17T15:39:21.333Z,7.28
2023-01-17T15:41:52.001Z,7.18
2023-01-17T15:44:53.033Z,7.09
2023-01-17T15:47:31.406Z,6.98
2023-01-17T15:49:59.977Z,6.82
2023-01-17T15:52:29.220Z,6.65
2023-01-17T15:54:59.331Z,6.56
2023-01-17T15:57:28.292Z,6.60
2023-01-17T15:59:58.629Z,6.41
2023-01-17T16:02:38.794Z,6.33
2023-01-17T16:05:44.456Z,6.31
2023-01-17T16:08:38.586Z,6.13
2023-01-17T16:11:06.855Z,6.05
2023-01-17T16:13:35.558Z,6.00
2023-01-17T16:16:22.929Z,8.61
2023-01-17T16:18:57.928Z,9.13
2023-01-17T16:21:26.542Z,7.87
2023-01-17T16:23:55.271Z,7.11
2023-01-17T16:26:22.613Z,6.75
2023-01-17T16:28:50.171Z,6.50
2023-01-17T16:31:17.203Z,6.11
2023-01-17T16:33:45.948Z,5.89
2023-01-17T16:36:16.810Z,5.77
2023-01-17T16:38:44.524Z,5.63
2023-01-17T16:41:12.805Z,5.61
2023-01-17T16:43:39.849Z,5.44
2023-01-17T16:46:07.042Z,5.40
2023-01-17T16:48:34.006Z,5.29
2023-01-17T16:51:05.607Z,5.23
2023-01-17T16:53:32.805Z,5.23
2023-01-17T16:56:07.534Z,5.24
2023-01-17T16:58:35.865Z,5.14
2023-01-17T17:01:02.872Z,5.11
2023-01-17T17:03:30.043Z,5.11
2023-01-17T17:05:58.357Z,5.08
2023-01-17T17:08:25.424Z,5.07
2023-01-17T17:10:52.374Z,5.08
2023-01-17T17:13:19.325Z,4.98
2023-01-17T17:15:47.681Z,4.91
2023-01-17T17:18:16.020Z,4.92
2023-01-17T17:20:43.432Z,4.86
2023-01-17T17:23:10.931Z,4.84
2023-01-17T17:25:38.358Z,4.73
2023-01-17T17:28:06.029Z,4.74
2023-01-17T17:30:33.459Z,4.71
2023-01-17T17:33:04.712Z,4.76
2023-01-17T17:35:34.658Z,4.88
2023-01-17T17:38:01.603Z,4.87
2023-01-17T17:40:28.433Z,4.85
2023-01-17T17:42:55.372Z,4.97
2023-01-17T17:45:22.650Z,4.94
2023-01-17T17:47:49.529Z,4.91
2023-01-17T17:50:18.213Z,4.88
2023-01-17T17:52:45.202Z,4.83
2023-01-17T17:55:13.226Z,4.76
2023-01-17T17:57:40.183Z,4.77
2023-01-17T18:00:08.383Z,4.81
2023-01-17T18:02:35.283Z,4.74
2023-01-17T18:05:02.421Z,4.70
2023-01-17T18:07:32.628Z,4.85
2023-01-17T18:09:59.656Z,4.86
2023-01-17T18:12:26.949Z,4.80
2023-01-17T18:14:53.836Z,4.81
2023-01-17T18:17:20.730Z,4.79
2023-01-17T18:19:47.627Z,4.70
2023-01-17T18:22:14.434Z,4.73
2023-01-17T18:24:42.731Z,4.61
2023-01-17T18:27:10.542Z,4.62
2023-01-17T18:29:37.463Z,4.58
2023-01-17T18:32:04.657Z,4.62
2023-01-17T18:34:33.815Z,4.70
2023-01-17T18:37:01.058Z,4.73
2023-01-17T18:39:29.381Z,4.74
2023-01-17T18:41:57.728Z,4.65
2023-01-17T18:44:25.260Z,4.60
2023-01-17T18:46:53.857Z,4.57
2023-01-17T18:49:21.009Z,4.57
2023-01-17T18:51:50.938Z,4.63
2023-01-17T18:54:19.094Z,4.71
2023-01-17T18:56:46.212Z,4.64
2023-01-17T18:59:16.081Z,4.57
2023-01-17T19:01:43.843Z,4.64
2023-01-17T19:04:11.896Z,4.67
2023-01-17T19:06:40.973Z,4.68
2023-01-17T19:09:10.389Z,4.63
2023-01-17T19:11:37.485Z,4.70
2023-01-17T19:14:04.822Z,4.69
2023-01-17T19:16:36.235Z,4.71
2023-01-17T19:19:06.377Z,4.73
2023-01-17T19:21:33.740Z,4.74
2023-01-17T19:24:01.318Z,4.77
2023-01-17T19:26:28.537Z,4.76
2023-01-17T19:28:56.827Z,4.80
2023-01-17T19:31:25.812Z,4.83
2023-01-17T19:33:57.523Z,4.84
2023-01-17T19:36:26.285Z,4.82
2023-01-17T19:39:03.925Z,4.83
2023-01-17T19:41:33.408Z,4.84
2023-01-17T19:44:01.715Z,4.87
2023-01-17T19:46:29.258Z,4.87
2023-01-17T19:48:58.241Z,4.77
2023-01-17T19:51:26.862Z,4.73
2023-01-17T19:53:54.116Z,4.69
2023-01-17T19:56:23.297Z,4.63
2023-01-17T19:58:50.651Z,4.67
2023-01-17T20:01:19.690Z,4.66
2023-01-17T20:03:48.699Z,4.59
2023-01-17T20:06:18.551Z,4.59
2023-01-17T20:08:45.839Z,4.62
2023-01-17T20:11:14.869Z,4.61
2023-01-17T20:13:42.283Z,4.60
2023-01-17T20:16:11.999Z,4.57
2023-01-17T20:18:39.084Z,4.65
2023-01-17T20:21:07.885Z,4.73
2023-01-17T20:23:38.499Z,4.70
2023-01-17T20:26:06.280Z,4.66
2023-01-17T20:28:34.957Z,4.67
2023-01-17T20:31:06.725Z,4.73
2023-01-17T20:33:33.627Z,4.81
2023-01-17T20:36:09.972Z,4.80
2023-01-17T20:38:45.434Z,4.84
2023-01-17T20:41:13.782Z,4.80
2023-01-17T20:43:40.886Z,4.79
2023-01-17T20:46:07.882Z,4.77
2023-01-17T20:48:34.842Z,4.85
2023-01-17T20:51:06.574Z,4.79
2023-01-17T20:53:35.012Z,4.71
2023-01-17T20:56:03.557Z,4.73
2023-01-17T20:58:31.258Z,4.82
2023-01-17T21:00:58.890Z,4.73
2023-01-17T21:03:30.001Z,4.73
2023-01-17T21:06:01.790Z,4.73
2023-01-17T21:08:29.000Z,4.75
2023-01-17T21:10:55.914Z,4.68
2023-01-17T21:13:24.645Z,4.72
2023-01-17T21:15:52.217Z,4.68
2023-01-17T21:18:20.776Z,4.59
2023-01-17T21:20:50.786Z,4.46
2023-01-17T21:23:18.715Z,4.43
2023-01-17T21:25:56.578Z,4.36
2023-01-17T21:28:27.101Z,4.38
2023-01-17T21:31:07.406Z,4.43
2023-01-17T21:33:36.133Z,4.46
2023-01-17T21:36:08.550Z,4.45
2023-01-17T21:41:27.596Z,4.44
2023-01-17T21:44:10.832Z,4.45
2023-01-17T21:46:42.196Z,4.42
2023-01-17T21:49:25.944Z,4.39
2023-01-17T21:52:00.841Z,4.38
2023-01-17T21:54:59.527Z,4.33
2023-01-17T21:57:55.541Z,4.27
2023-01-17T22:01:12.642Z,4.21
2023-01-17T22:04:21.812Z,4.19
2023-01-17T22:07:11.170Z,4.08
2023-01-17T22:09:39.130Z,4.03
2023-01-17T22:12:06.869Z,3.99
2023-01-17T22:15:05.017Z,3.93
2023-01-17T22:18:04.759Z,3.95
2023-01-17T22:20:39.232Z,3.89
2023-01-17T22:23:27.411Z,3.83
2023-01-17T22:26:31.953Z,3.87
2023-01-17T22:29:03.637Z,3.87
2023-01-17T22:34:22.915Z,3.85
2023-01-17T22:37:06.744Z,3.79
2023-01-17T22:39:50.321Z,3.66
2023-01-17T22:42:24.220Z,3.66
2023-01-17T22:45:24.955Z,3.71
2023-01-17T22:48:34.785Z,3.61
2023-01-17T22:51:49.808Z,3.62
2023-01-17T22:54:37.705Z,3.71
2023-01-17T22:57:42.195Z,3.77
2023-01-17T23:00:17.288Z,3.63
2023-01-17T23:02:59.067Z,3.59
2023-01-17T23:05:26.393Z,3.55
2023-01-17T23:08:41.075Z,3.52
2023-01-17T23:15:49.142Z,3.52
2023-01-17T23:19:04.865Z,3.53
2023-01-17T23:22:23.635Z,3.51
2023-01-17T23:25:25.408Z,3.52
2023-01-17T23:28:32.175Z,3.58
2023-01-17T23:31:25.507Z,3.52
2023-01-17T23:36:09.685Z,3.53
2023-01-17T23:41:53.431Z,3.46
2023-01-17T23:45:02.204Z,3.42
2023-01-17T23:48:33.233Z,3.32
2023-01-17T23:55:05.139Z,3.27
2023-01-17T23:58:20.619Z,3.31
